createdAt,value
2018-12-14T00:00:06.147Z,0.00
2018-12-14T00:03:06.396Z,0.00
2018-12-14T00:04:06.568Z,0.00
2018-12-14T00:05:06.452Z,0.00
2018-12-14T00:06:06.335Z,0.00
2018-12-14T00:08:06.392Z,0.00
2018-12-14T00:10:06.509Z,0.00
2018-12-14T00:12:06.822Z,0.00
2018-12-14T00:13:06.696Z,0.00
2018-12-14T00:14:06.625Z,0.00
2018-12-14T00:18:06.703Z,0.00
2018-12-14T00:21:07.087Z,0.00
2018-12-14T00:22:06.870Z,0.00
2018-12-14T00:24:06.885Z,0.00
2018-12-14T00:27:07.020Z,0.00
2018-12-14T00:29:07.433Z,0.00
2018-12-14T00:30:07.118Z,0.00
2018-12-14T00:31:07.146Z,0.00
2018-12-14T00:32:07.182Z,0.00
2018-12-14T00:34:07.241Z,0.00
2018-12-14T00:35:07.273Z,0.00
2018-12-14T00:36:07.603Z,0.00
2018-12-14T00:40:07.369Z,0.00
2018-12-14T00:41:07.457Z,0.00
2018-12-14T00:42:07.486Z,0.00
2018-12-14T00:44:07.794Z,0.00
2018-12-14T00:47:07.586Z,0.00
2018-12-14T00:48:07.665Z,0.00
2018-12-14T00:50:07.726Z,0.00
2018-12-14T00:51:08.009Z,0.00
2018-12-14T00:53:07.832Z,0.00
2018-12-14T00:55:07.881Z,0.00
2018-12-14T00:56:07.861Z,0.00
2018-12-14T00:58:07.979Z,0.00
2018-12-14T01:01:08.317Z,0.00
2018-12-14T01:03:08.124Z,0.00
2018-12-14T01:04:08.105Z,0.00
2018-12-14T01:07:08.249Z,0.00
2018-12-14T01:09:08.574Z,0.00
2018-12-14T01:10:08.312Z,0.00
2018-12-14T01:11:08.322Z,0.00
2018-12-14T01:13:08.439Z,0.00
2018-12-14T01:16:08.521Z,0.00
2018-12-14T01:17:08.807Z,0.00
2018-12-14T01:18:08.586Z,0.00
2018-12-14T01:19:08.571Z,0.00
2018-12-14T01:20:08.601Z,0.00
2018-12-14T01:21:08.681Z,0.00
2018-12-14T01:22:08.665Z,0.00
2018-12-14T01:23:09.037Z,0.00
2018-12-14T01:26:08.781Z,0.00
2018-12-14T01:29:08.918Z,0.00
2018-12-14T01:32:09.317Z,0.00
2018-12-14T01:33:08.997Z,0.00
2018-12-14T01:35:09.057Z,0.00
2018-12-14T01:37:09.172Z,0.00
2018-12-14T01:38:09.443Z,0.00
2018-12-14T01:40:09.261Z,0.00
2018-12-14T01:41:09.286Z,0.00
2018-12-14T01:42:09.274Z,0.00
2018-12-14T01:43:09.398Z,0.00
2018-12-14T01:44:09.735Z,0.00
2018-12-14T01:46:09.445Z,0.00
2018-12-14T01:47:09.427Z,0.00
2018-12-14T01:50:09.573Z,0.00
2018-12-14T01:53:09.913Z,0.00
2018-12-14T01:54:09.684Z,0.00
2018-12-14T01:55:09.716Z,0.00
2018-12-14T01:57:09.778Z,0.00
2018-12-14T01:58:09.811Z,0.00
2018-12-14T01:59:10.096Z,0.00
2018-12-14T02:00:09.865Z,0.00
2018-12-14T02:04:09.988Z,0.00
2018-12-14T02:05:10.022Z,0.00
2018-12-14T02:07:10.333Z,0.00
2018-12-14T02:08:10.117Z,0.00
2018-12-14T02:09:10.145Z,0.00
2018-12-14T02:10:10.176Z,0.00
2018-12-14T02:11:10.150Z,0.00
2018-12-14T02:12:11.468Z,0.00
2018-12-14T02:13:10.514Z,0.00
2018-12-14T02:15:10.279Z,0.00
2018-12-14T02:16:10.312Z,0.00
2018-12-14T02:17:10.338Z,0.00
2018-12-14T02:18:10.416Z,0.00
2018-12-14T02:19:10.401Z,0.00
2018-12-14T02:22:10.799Z,0.00
2018-12-14T02:23:10.523Z,0.00
2018-12-14T02:24:10.555Z,0.00
2018-12-14T02:25:10.635Z,0.00
2018-12-14T02:26:10.609Z,0.00
2018-12-14T02:27:10.695Z,0.00
2018-12-14T02:28:11.023Z,0.00
2018-12-14T02:29:10.752Z,0.00
2018-12-14T02:31:10.819Z,0.00
2018-12-14T02:32:10.849Z,0.00
2018-12-14T02:34:10.861Z,0.00
2018-12-14T02:35:11.194Z,0.00
2018-12-14T02:37:11.000Z,0.00
2018-12-14T02:39:11.061Z,0.00
2018-12-14T02:40:11.038Z,0.00
2018-12-14T02:42:19.163Z,0.00
2018-12-14T02:43:11.436Z,0.00
2018-12-14T02:44:11.168Z,0.00
2018-12-14T02:45:11.197Z,0.00
2018-12-14T02:47:11.305Z,0.00
2018-12-14T02:49:11.361Z,0.00
2018-12-14T02:50:11.698Z,0.00
2018-12-14T02:52:11.453Z,0.00
2018-12-14T02:53:11.483Z,0.00
2018-12-14T02:54:11.517Z,0.00
2018-12-14T02:56:11.576Z,0.00
2018-12-14T02:57:11.865Z,0.00
2018-12-14T02:58:11.644Z,0.00
2018-12-14T02:59:11.675Z,0.00
2018-12-14T03:01:11.738Z,0.00
2018-12-14T03:03:11.794Z,0.00
2018-12-14T03:04:12.077Z,0.00
2018-12-14T03:06:11.832Z,0.00
2018-12-14T03:07:11.913Z,0.00
2018-12-14T03:08:11.890Z,0.00
2018-12-14T03:10:12.012Z,0.00
2018-12-14T03:11:12.333Z,0.00
2018-12-14T03:12:12.020Z,0.00
2018-12-14T03:13:12.102Z,0.00
2018-12-14T03:14:12.073Z,0.00
2018-12-14T03:15:12.159Z,0.00
2018-12-14T03:16:12.134Z,0.00
2018-12-14T03:17:12.274Z,0.00
2018-12-14T03:18:12.501Z,0.00
2018-12-14T03:19:12.232Z,0.00
2018-12-14T03:20:12.310Z,0.00
2018-12-14T03:21:12.289Z,0.00
2018-12-14T03:23:12.353Z,0.00
2018-12-14T03:24:12.385Z,0.00
2018-12-14T03:25:12.722Z,0.00
2018-12-14T03:26:12.496Z,0.00
2018-12-14T03:27:12.470Z,0.00
2018-12-14T03:28:12.557Z,0.00
2018-12-14T03:29:12.537Z,0.00
2018-12-14T03:30:12.632Z,0.00
2018-12-14T03:31:12.598Z,0.00
2018-12-14T03:32:12.982Z,0.00
2018-12-14T03:33:12.708Z,0.00
2018-12-14T03:34:12.733Z,0.00
2018-12-14T03:35:12.718Z,0.00
2018-12-14T03:36:12.801Z,0.00
2018-12-14T03:37:12.783Z,0.00
2018-12-14T03:38:12.875Z,0.00
2018-12-14T03:39:13.142Z,0.00
2018-12-14T03:40:12.873Z,0.00
2018-12-14T03:41:12.954Z,0.00
2018-12-14T03:42:12.984Z,0.00
2018-12-14T03:43:12.963Z,0.00
2018-12-14T03:45:13.075Z,0.00
2018-12-14T03:46:13.349Z,0.00
2018-12-14T03:47:13.088Z,0.00
2018-12-14T03:48:13.117Z,0.00
2018-12-14T03:50:13.229Z,0.00
2018-12-14T03:51:13.307Z,0.00
2018-12-14T03:52:13.284Z,0.00
2018-12-14T03:53:13.571Z,0.00
2018-12-14T03:55:13.377Z,0.00
2018-12-14T03:56:13.412Z,0.00
2018-12-14T03:57:13.439Z,0.00
2018-12-14T03:58:13.467Z,0.00
2018-12-14T03:59:13.550Z,0.00
2018-12-14T04:00:13.782Z,0.00
2018-12-14T04:01:13.507Z,0.00
2018-12-14T04:02:13.541Z,0.00
2018-12-14T04:03:13.621Z,0.00
2018-12-14T04:04:13.614Z,0.00
2018-12-14T04:05:13.696Z,0.00
2018-12-14T04:07:13.742Z,0.00
2018-12-14T04:08:13.724Z,0.00
2018-12-14T04:09:13.803Z,0.00
2018-12-14T04:10:13.839Z,0.00
2018-12-14T04:12:13.842Z,0.00
2018-12-14T04:13:13.927Z,0.00
2018-12-14T04:14:14.203Z,0.00
2018-12-14T04:15:14.093Z,0.00
2018-12-14T04:16:14.014Z,0.00
2018-12-14T04:18:14.078Z,0.00
2018-12-14T04:19:14.063Z,0.00
2018-12-14T04:20:14.142Z,0.00
2018-12-14T04:22:14.504Z,0.00
2018-12-14T04:23:14.177Z,0.00
2018-12-14T04:24:14.207Z,0.00
2018-12-14T04:25:14.312Z,0.00
2018-12-14T04:27:14.364Z,0.00
2018-12-14T04:28:14.381Z,0.00
2018-12-14T04:30:14.697Z,0.00
2018-12-14T04:31:14.431Z,0.00
2018-12-14T04:32:14.511Z,0.00
2018-12-14T04:33:14.483Z,0.00
2018-12-14T04:34:14.532Z,0.00
2018-12-14T04:36:14.632Z,0.00
2018-12-14T04:37:14.957Z,0.00
2018-12-14T04:38:14.687Z,0.00
2018-12-14T04:39:14.670Z,0.00
2018-12-14T04:40:14.704Z,0.00
2018-12-14T04:41:14.776Z,0.00
2018-12-14T04:42:14.806Z,0.00
2018-12-14T04:43:14.938Z,0.00
2018-12-14T04:44:15.121Z,0.00
2018-12-14T04:45:14.901Z,0.00
2018-12-14T04:46:14.882Z,0.00
2018-12-14T04:47:14.920Z,0.00
2018-12-14T04:48:14.992Z,0.00
2018-12-14T04:49:15.022Z,0.00
2018-12-14T04:50:15.049Z,0.00
2018-12-14T04:51:15.341Z,0.00
2018-12-14T04:52:15.058Z,0.00
2018-12-14T04:53:15.156Z,0.00
2018-12-14T04:54:15.129Z,0.00
2018-12-14T04:55:15.155Z,0.00
2018-12-14T04:56:15.236Z,0.00
2018-12-14T04:57:15.272Z,0.00
2018-12-14T04:58:15.551Z,0.00
2018-12-14T04:59:15.329Z,0.00
2018-12-14T05:00:15.303Z,0.00
2018-12-14T05:01:15.391Z,0.00
2018-12-14T05:02:15.422Z,0.00
2018-12-14T05:03:15.447Z,0.00
2018-12-14T05:04:15.439Z,0.00
2018-12-14T05:06:15.789Z,0.00
2018-12-14T05:07:15.570Z,0.00
2018-12-14T05:08:15.604Z,0.00
2018-12-14T05:09:15.627Z,0.00
2018-12-14T05:13:15.755Z,0.00
2018-12-14T05:14:16.036Z,0.00
2018-12-14T05:15:15.810Z,0.00
2018-12-14T05:16:15.811Z,0.00
2018-12-14T05:17:15.881Z,0.00
2018-12-14T05:18:15.854Z,0.00
2018-12-14T05:20:15.967Z,0.00
2018-12-14T05:21:16.255Z,0.00
2018-12-14T05:22:16.026Z,0.00
2018-12-14T05:23:16.067Z,0.00
2018-12-14T05:24:16.038Z,0.00
2018-12-14T05:25:16.114Z,0.00
2018-12-14T05:26:16.098Z,0.00
2018-12-14T05:27:16.210Z,0.00
2018-12-14T05:28:16.459Z,0.00
2018-12-14T05:29:16.184Z,0.00
2018-12-14T05:30:16.219Z,0.00
2018-12-14T05:31:16.246Z,0.00
2018-12-14T05:32:16.335Z,0.00
2018-12-14T05:33:16.361Z,0.00
2018-12-14T05:34:16.388Z,0.00
2018-12-14T05:35:16.675Z,0.00
2018-12-14T05:36:16.403Z,0.00
2018-12-14T05:37:16.486Z,0.00
2018-12-14T05:38:16.515Z,0.00
2018-12-14T05:40:16.577Z,0.00
2018-12-14T05:41:16.549Z,0.00
2018-12-14T05:42:16.886Z,0.00
2018-12-14T05:43:16.661Z,0.00
2018-12-14T05:44:16.741Z,0.00
2018-12-14T05:45:16.728Z,0.00
2018-12-14T05:46:16.706Z,0.00
2018-12-14T05:47:16.794Z,0.00
2018-12-14T05:50:16.881Z,0.00
2018-12-14T05:52:17.183Z,0.00
2018-12-14T05:54:16.962Z,0.00
2018-12-14T05:55:17.026Z,0.00
2018-12-14T05:56:17.059Z,0.00
2018-12-14T05:57:17.034Z,0.00
2018-12-14T05:58:17.370Z,0.00
2018-12-14T05:59:17.109Z,0.00
2018-12-14T06:00:17.187Z,0.00
2018-12-14T06:01:17.217Z,0.00
2018-12-14T06:03:17.216Z,0.00
2018-12-14T06:04:17.558Z,0.00
2018-12-14T06:05:17.632Z,0.00
2018-12-14T06:06:17.368Z,0.00
2018-12-14T06:07:17.390Z,0.00
2018-12-14T06:08:17.374Z,0.00
2018-12-14T06:09:17.553Z,0.00
2018-12-14T06:10:17.507Z,0.00
2018-12-14T06:11:17.615Z,0.00
2018-12-14T06:12:17.797Z,0.00
2018-12-14T06:13:17.574Z,0.00
2018-12-14T06:14:17.602Z,0.00
2018-12-14T06:15:17.586Z,0.00
2018-12-14T06:16:17.616Z,0.00
2018-12-14T06:17:17.690Z,0.00
2018-12-14T06:18:17.727Z,0.00
2018-12-14T06:19:17.707Z,0.00
2018-12-14T06:20:17.735Z,0.00
2018-12-14T06:21:17.813Z,0.00
2018-12-14T06:22:18.099Z,0.00
2018-12-14T06:23:17.878Z,0.00
2018-12-14T06:24:17.961Z,0.00
2018-12-14T06:25:17.897Z,0.00
2018-12-14T06:26:17.970Z,0.00
2018-12-14T06:27:17.945Z,0.00
2018-12-14T06:28:18.032Z,0.00
2018-12-14T06:29:18.065Z,0.00
2018-12-14T06:30:18.099Z,0.00
2018-12-14T06:31:18.429Z,0.00
2018-12-14T06:32:18.148Z,0.00
2018-12-14T06:33:18.180Z,0.00
2018-12-14T06:34:18.290Z,0.00
2018-12-14T06:35:18.191Z,0.00
2018-12-14T06:36:18.223Z,0.00
2018-12-14T06:37:18.558Z,0.00
2018-12-14T06:38:18.291Z,0.00
2018-12-14T06:39:18.376Z,0.00
2018-12-14T06:40:18.344Z,0.00
2018-12-14T06:41:18.433Z,0.00
2018-12-14T06:42:18.406Z,0.00
2018-12-14T06:43:18.741Z,0.00
2018-12-14T06:45:18.549Z,0.00
2018-12-14T06:46:18.577Z,0.00
2018-12-14T06:47:18.708Z,0.00
2018-12-14T06:48:18.637Z,0.00
2018-12-14T06:50:18.702Z,0.00
2018-12-14T06:51:18.681Z,0.00
2018-12-14T06:52:18.717Z,0.00
2018-12-14T06:53:18.799Z,0.00
2018-12-14T06:54:18.771Z,0.00
2018-12-14T06:55:18.854Z,0.00
2018-12-14T06:56:18.880Z,0.00
2018-12-14T06:57:18.910Z,0.00
2018-12-14T06:58:18.884Z,0.00
2018-12-14T07:00:19.000Z,0.00
2018-12-14T07:01:19.380Z,0.00
2018-12-14T07:02:19.018Z,0.00
2018-12-14T07:03:19.057Z,0.00
2018-12-14T07:04:19.125Z,0.00
2018-12-14T07:05:19.133Z,0.00
2018-12-14T07:06:19.131Z,0.00
2018-12-14T07:07:19.216Z,4.00
2018-12-14T07:09:19.271Z,4.00
2018-12-14T07:10:19.304Z,0.00
2018-12-14T07:11:19.281Z,0.00
2018-12-14T07:12:19.315Z,0.00
2018-12-14T07:13:22.024Z,4.00
2018-12-14T07:14:19.676Z,4.00
2018-12-14T07:15:19.453Z,4.00
2018-12-14T07:16:19.532Z,4.00
2018-12-14T07:17:19.529Z,4.00
2018-12-14T07:19:19.576Z,8.00
2018-12-14T07:20:19.869Z,4.00
2018-12-14T07:21:19.648Z,8.00
2018-12-14T07:22:19.695Z,8.00
2018-12-14T07:23:19.660Z,12.00
2018-12-14T07:24:19.782Z,8.00
2018-12-14T07:25:19.764Z,12.00
2018-12-14T07:26:20.041Z,12.00
2018-12-14T07:27:19.768Z,16.00
2018-12-14T07:28:19.846Z,16.00
2018-12-14T07:29:19.883Z,12.00
2018-12-14T07:30:19.915Z,16.00
2018-12-14T07:31:19.939Z,16.00
2018-12-14T07:33:20.009Z,16.00
2018-12-14T07:34:20.337Z,20.00
2018-12-14T07:35:20.071Z,20.00
2018-12-14T07:36:20.048Z,20.00
2018-12-14T07:38:20.223Z,20.00
2018-12-14T07:39:20.137Z,24.00
2018-12-14T07:41:20.544Z,28.00
2018-12-14T07:42:20.273Z,28.00
2018-12-14T07:43:20.260Z,28.00
2018-12-14T07:44:20.343Z,32.00
2018-12-14T07:46:20.558Z,32.00
2018-12-14T07:47:20.401Z,36.00
2018-12-14T07:48:20.406Z,32.00
2018-12-14T07:49:20.443Z,36.00
2018-12-14T07:50:20.622Z,36.00
2018-12-14T07:52:20.547Z,40.00
2018-12-14T07:53:20.920Z,40.00
2018-12-14T07:54:20.595Z,40.00
2018-12-14T07:55:20.679Z,44.00
2018-12-14T07:56:20.700Z,44.00
2018-12-14T07:57:20.740Z,44.00
2018-12-14T07:58:20.769Z,48.00
2018-12-14T07:59:20.803Z,48.00
2018-12-14T08:00:20.824Z,52.00
2018-12-14T08:01:20.873Z,52.00
2018-12-14T08:02:20.891Z,56.00
2018-12-14T08:03:20.876Z,52.00
2018-12-14T08:04:20.916Z,60.00
2018-12-14T08:05:20.979Z,56.00
2018-12-14T08:06:21.004Z,56.00
2018-12-14T08:07:21.038Z,60.00
2018-12-14T08:08:21.022Z,64.00
2018-12-14T08:09:21.097Z,64.00
2018-12-14T08:10:21.091Z,68.00
2018-12-14T08:11:21.113Z,76.00
2018-12-14T08:12:21.492Z,76.00
2018-12-14T08:13:21.228Z,76.00
2018-12-14T08:15:21.287Z,80.00
2018-12-14T08:16:21.266Z,80.00
2018-12-14T08:17:21.291Z,80.00
2018-12-14T08:18:21.674Z,80.00
2018-12-14T08:19:21.359Z,84.00
2018-12-14T08:20:21.615Z,88.00
2018-12-14T08:21:21.472Z,88.00
2018-12-14T08:22:21.446Z,92.00
2018-12-14T08:23:21.527Z,96.00
2018-12-14T08:24:21.807Z,96.00
2018-12-14T08:25:21.587Z,100.00
2018-12-14T08:26:21.569Z,104.00
2018-12-14T08:28:21.707Z,116.00
2018-12-14T08:29:21.672Z,120.00
2018-12-14T08:30:21.740Z,128.00
2018-12-14T08:31:22.072Z,128.00
2018-12-14T08:32:21.801Z,124.00
2018-12-14T08:33:21.831Z,128.00
2018-12-14T08:34:21.863Z,132.00
2018-12-14T08:35:21.902Z,128.00
2018-12-14T08:36:21.873Z,136.00
2018-12-14T08:37:21.949Z,140.00
2018-12-14T08:38:21.983Z,140.00
2018-12-14T08:39:22.015Z,144.00
2018-12-14T08:40:22.003Z,144.00
2018-12-14T08:41:22.089Z,144.00
2018-12-14T08:43:22.147Z,156.00
2018-12-14T08:44:22.426Z,160.00
2018-12-14T08:46:22.226Z,164.00
2018-12-14T08:47:22.329Z,164.00
2018-12-14T08:48:22.233Z,156.00
2018-12-14T08:49:22.318Z,148.00
2018-12-14T08:50:22.299Z,144.00
2018-12-14T08:51:22.633Z,144.00
2018-12-14T08:52:22.408Z,152.00
2018-12-14T08:53:22.398Z,152.00
2018-12-14T08:54:22.421Z,152.00
2018-12-14T08:55:22.504Z,152.00
2018-12-14T08:56:22.579Z,152.00
2018-12-14T08:57:22.570Z,152.00
2018-12-14T08:58:22.546Z,156.00
2018-12-14T08:59:22.621Z,172.00
2018-12-14T09:00:22.663Z,184.00
2018-12-14T09:01:22.683Z,196.00
2018-12-14T09:02:22.728Z,200.00
2018-12-14T09:04:22.721Z,200.00
2018-12-14T09:05:23.051Z,196.00
2018-12-14T09:06:22.836Z,192.00
2018-12-14T09:07:24.766Z,188.00
2018-12-14T09:08:22.909Z,192.00
2018-12-14T09:09:22.938Z,200.00
2018-12-14T09:10:23.076Z,212.00
2018-12-14T09:11:22.985Z,216.00
2018-12-14T09:12:23.927Z,224.00
2018-12-14T09:13:24.186Z,228.00
2018-12-14T09:14:23.031Z,224.00
2018-12-14T09:15:23.081Z,228.00
2018-12-14T09:16:23.189Z,228.00
2018-12-14T09:17:23.168Z,224.00
2018-12-14T09:18:23.203Z,228.00
2018-12-14T09:19:23.483Z,232.00
2018-12-14T09:20:23.220Z,232.00
2018-12-14T09:21:23.241Z,236.00
2018-12-14T09:22:23.325Z,240.00
2018-12-14T09:23:23.350Z,236.00
2018-12-14T09:24:23.336Z,228.00
2018-12-14T09:25:23.370Z,224.00
2018-12-14T09:26:23.698Z,220.00
2018-12-14T09:27:23.457Z,220.00
2018-12-14T09:28:23.506Z,228.00
2018-12-14T09:29:23.538Z,232.00
2018-12-14T09:30:23.575Z,240.00
2018-12-14T09:31:23.550Z,252.00
2018-12-14T09:32:23.579Z,256.00
2018-12-14T09:33:23.911Z,264.00
2018-12-14T09:34:23.641Z,276.00
2018-12-14T09:35:23.727Z,288.00
2018-12-14T09:36:23.755Z,292.00
2018-12-14T09:37:23.784Z,288.00
2018-12-14T09:38:23.806Z,296.00
2018-12-14T09:39:24.154Z,304.00
2018-12-14T09:40:23.875Z,308.00
2018-12-14T09:41:23.902Z,308.00
2018-12-14T09:42:23.892Z,300.00
2018-12-14T09:43:24.220Z,292.00
2018-12-14T09:45:24.022Z,292.00
2018-12-14T09:46:24.318Z,280.00
2018-12-14T09:47:24.102Z,276.00
2018-12-14T09:48:24.113Z,276.00
2018-12-14T09:49:24.101Z,284.00
2018-12-14T09:50:24.124Z,284.00
2018-12-14T09:51:24.206Z,296.00
2018-12-14T09:52:24.209Z,312.00
2018-12-14T09:53:24.403Z,336.00
2018-12-14T09:54:24.382Z,340.00
2018-12-14T09:55:24.418Z,332.00
2018-12-14T09:56:24.477Z,336.00
2018-12-14T09:57:24.470Z,332.00
2018-12-14T09:59:24.758Z,320.00
2018-12-14T10:00:24.433Z,344.00
2018-12-14T10:01:24.521Z,368.00
2018-12-14T10:02:24.496Z,380.00
2018-12-14T10:03:24.577Z,368.00
2018-12-14T10:04:24.558Z,348.00
2018-12-14T10:05:24.882Z,352.00
2018-12-14T10:06:24.670Z,364.00
2018-12-14T10:07:24.674Z,380.00
2018-12-14T10:08:25.379Z,396.00
2018-12-14T10:09:24.753Z,392.00
2018-12-14T10:10:24.794Z,364.00
2018-12-14T10:11:24.821Z,332.00
2018-12-14T10:12:25.105Z,320.00
2018-12-14T10:13:24.827Z,316.00
2018-12-14T10:15:24.892Z,316.00
2018-12-14T10:16:24.977Z,328.00
2018-12-14T10:17:24.998Z,344.00
2018-12-14T10:18:24.980Z,348.00
2018-12-14T10:19:25.013Z,344.00
2018-12-14T10:20:25.049Z,356.00
2018-12-14T10:21:25.122Z,364.00
2018-12-14T10:22:25.165Z,364.00
2018-12-14T10:23:25.132Z,360.00
2018-12-14T10:24:25.213Z,364.00
2018-12-14T10:25:25.200Z,384.00
2018-12-14T10:26:25.282Z,416.00
2018-12-14T10:27:25.306Z,452.00
2018-12-14T10:28:25.290Z,484.00
2018-12-14T10:29:25.481Z,524.00
2018-12-14T10:30:25.395Z,536.00
2018-12-14T10:31:25.383Z,516.00
2018-12-14T10:32:25.413Z,476.00
2018-12-14T10:33:25.493Z,464.00
2018-12-14T10:34:25.538Z,464.00
2018-12-14T10:35:26.072Z,484.00
2018-12-14T10:36:25.533Z,516.00
2018-12-14T10:37:25.883Z,532.00
2018-12-14T10:38:26.163Z,540.00
2018-12-14T10:39:25.723Z,544.00
2018-12-14T10:40:25.710Z,540.00
2018-12-14T10:41:25.742Z,532.00
2018-12-14T10:42:25.766Z,528.00
2018-12-14T10:43:26.275Z,516.00
2018-12-14T10:44:29.791Z,520.00
2018-12-14T10:45:25.975Z,528.00
2018-12-14T10:46:25.990Z,544.00
2018-12-14T10:47:25.973Z,552.00
2018-12-14T10:48:25.951Z,540.00
2018-12-14T10:49:26.579Z,532.00
2018-12-14T10:50:26.137Z,536.00
2018-12-14T10:51:26.040Z,540.00
2018-12-14T10:52:26.245Z,556.00
2018-12-14T10:53:26.137Z,572.00
2018-12-14T10:54:26.248Z,596.00
2018-12-14T10:55:26.338Z,624.00
2018-12-14T10:56:26.448Z,636.00
2018-12-14T10:57:26.252Z,636.00
2018-12-14T10:58:26.259Z,620.00
2018-12-14T10:59:26.300Z,620.00
2018-12-14T11:00:26.267Z,652.00
2018-12-14T11:01:26.356Z,664.00
2018-12-14T11:02:26.392Z,640.00
2018-12-14T11:03:26.627Z,604.00
2018-12-14T11:04:26.443Z,588.00
2018-12-14T11:05:26.472Z,588.00
2018-12-14T11:06:26.510Z,592.00
2018-12-14T11:07:26.573Z,600.00
2018-12-14T11:09:26.618Z,600.00
2018-12-14T11:10:26.633Z,600.00
2018-12-14T11:11:26.750Z,592.00
2018-12-14T11:12:26.634Z,564.00
2018-12-14T11:13:26.740Z,548.00
2018-12-14T11:14:26.880Z,548.00
2018-12-14T11:15:27.128Z,552.00
2018-12-14T11:16:26.807Z,560.00
2018-12-14T11:17:26.832Z,568.00
2018-12-14T11:18:26.821Z,584.00
2018-12-14T11:19:26.850Z,596.00
2018-12-14T11:20:26.987Z,592.00
2018-12-14T11:21:26.971Z,596.00
2018-12-14T11:23:27.278Z,600.00
2018-12-14T11:24:27.134Z,592.00
2018-12-14T11:25:27.411Z,588.00
2018-12-14T11:26:27.172Z,592.00
2018-12-14T11:27:27.097Z,596.00
2018-12-14T11:28:27.271Z,608.00
2018-12-14T11:29:27.205Z,600.00
2018-12-14T11:30:27.522Z,600.00
2018-12-14T11:31:27.214Z,600.00
2018-12-14T11:32:27.298Z,600.00
2018-12-14T11:33:27.327Z,600.00
2018-12-14T11:34:29.818Z,600.00
2018-12-14T11:35:27.343Z,596.00
2018-12-14T11:36:27.366Z,600.00
2018-12-14T11:38:27.436Z,620.00
2018-12-14T11:39:27.521Z,620.00
2018-12-14T11:40:27.538Z,628.00
2018-12-14T11:41:27.523Z,640.00
2018-12-14T11:42:27.659Z,644.00
2018-12-14T11:43:27.585Z,644.00
2018-12-14T11:44:27.676Z,632.00
2018-12-14T11:45:27.699Z,628.00
2018-12-14T11:46:27.676Z,632.00
2018-12-14T11:47:28.192Z,644.00
2018-12-14T11:48:27.740Z,636.00
2018-12-14T11:49:27.879Z,624.00
2018-12-14T11:50:27.865Z,616.00
2018-12-14T11:51:27.832Z,620.00
2018-12-14T11:52:27.856Z,624.00
2018-12-14T11:53:27.942Z,624.00
2018-12-14T11:54:27.928Z,620.00
2018-12-14T11:55:28.453Z,612.00
2018-12-14T11:56:28.032Z,608.00
2018-12-14T11:57:28.012Z,608.00
2018-12-14T11:58:28.099Z,612.00
2018-12-14T11:59:28.079Z,616.00
2018-12-14T12:00:28.163Z,620.00
2018-12-14T12:01:28.189Z,612.00
2018-12-14T12:02:28.233Z,604.00
2018-12-14T12:03:28.302Z,608.00
2018-12-14T12:04:28.232Z,632.00
2018-12-14T12:05:28.316Z,652.00
2018-12-14T12:06:28.295Z,648.00
2018-12-14T12:07:28.383Z,640.00
2018-12-14T12:08:28.650Z,644.00
2018-12-14T12:09:28.387Z,660.00
2018-12-14T12:10:28.574Z,660.00
2018-12-14T12:11:28.498Z,656.00
2018-12-14T12:12:28.470Z,652.00
2018-12-14T12:13:28.552Z,656.00
2018-12-14T12:14:28.532Z,664.00
2018-12-14T12:15:28.638Z,668.00
2018-12-14T12:16:28.646Z,676.00
2018-12-14T12:17:28.700Z,704.00
2018-12-14T12:18:28.709Z,740.00
2018-12-14T12:19:28.796Z,760.00
2018-12-14T12:20:28.766Z,760.00
2018-12-14T12:21:29.048Z,764.00
2018-12-14T12:22:28.836Z,764.00
2018-12-14T12:23:28.808Z,760.00
2018-12-14T12:24:28.850Z,752.00
2018-12-14T12:25:28.924Z,744.00
2018-12-14T12:26:28.953Z,732.00
2018-12-14T12:27:28.942Z,716.00
2018-12-14T12:28:29.017Z,696.00
2018-12-14T12:29:29.029Z,676.00
2018-12-14T12:30:29.038Z,672.00
2018-12-14T12:31:29.110Z,664.00
2018-12-14T12:32:29.087Z,652.00
2018-12-14T12:33:29.180Z,644.00
2018-12-14T12:34:29.502Z,628.00
2018-12-14T12:35:29.232Z,608.00
2018-12-14T12:36:29.265Z,596.00
2018-12-14T12:37:29.300Z,580.00
2018-12-14T12:38:29.323Z,564.00
2018-12-14T12:39:29.300Z,552.00
2018-12-14T12:40:29.339Z,540.00
2018-12-14T12:41:29.412Z,536.00
2018-12-14T12:42:29.450Z,536.00
2018-12-14T12:43:29.477Z,528.00
2018-12-14T12:44:33.570Z,520.00
2018-12-14T12:45:29.539Z,516.00
2018-12-14T12:46:29.567Z,512.00
2018-12-14T12:47:29.550Z,508.00
2018-12-14T12:48:29.678Z,500.00
2018-12-14T12:49:29.664Z,488.00
2018-12-14T12:50:30.376Z,476.00
2018-12-14T12:51:29.724Z,468.00
2018-12-14T12:52:29.768Z,452.00
2018-12-14T12:53:29.738Z,444.00
2018-12-14T12:54:29.774Z,444.00
2018-12-14T12:55:29.850Z,456.00
2018-12-14T12:56:29.879Z,460.00
2018-12-14T12:57:30.016Z,452.00
2018-12-14T12:58:29.889Z,456.00
2018-12-14T12:59:29.977Z,460.00
2018-12-14T13:00:29.996Z,460.00
2018-12-14T13:01:29.983Z,452.00
2018-12-14T13:02:30.013Z,436.00
2018-12-14T13:03:30.040Z,420.00
2018-12-14T13:04:30.177Z,400.00
2018-12-14T13:05:34.866Z,388.00
2018-12-14T13:07:30.218Z,392.00
2018-12-14T13:08:30.356Z,392.00
2018-12-14T13:09:30.230Z,384.00
2018-12-14T13:10:30.564Z,384.00
2018-12-14T13:11:30.286Z,380.00
2018-12-14T13:12:30.369Z,380.00
2018-12-14T13:13:30.399Z,372.00
2018-12-14T13:14:30.426Z,376.00
2018-12-14T13:15:30.461Z,376.00
2018-12-14T13:16:30.440Z,368.00
2018-12-14T13:17:30.520Z,352.00
2018-12-14T13:19:30.579Z,344.00
2018-12-14T13:20:30.612Z,356.00
2018-12-14T13:21:30.596Z,360.00
2018-12-14T13:22:30.679Z,364.00
2018-12-14T13:23:30.705Z,364.00
2018-12-14T13:24:30.747Z,360.00
2018-12-14T13:25:30.714Z,364.00
2018-12-14T13:26:30.799Z,372.00
2018-12-14T13:27:30.830Z,376.00
2018-12-14T13:28:31.111Z,372.00
2018-12-14T13:29:30.894Z,368.00
2018-12-14T13:30:30.920Z,368.00
2018-12-14T13:32:30.934Z,360.00
2018-12-14T13:33:31.009Z,352.00
2018-12-14T13:34:31.045Z,340.00
2018-12-14T13:35:31.329Z,332.00
2018-12-14T13:36:31.054Z,328.00
2018-12-14T13:37:31.134Z,328.00
2018-12-14T13:38:31.125Z,324.00
2018-12-14T13:39:31.206Z,320.00
2018-12-14T13:40:31.242Z,312.00
2018-12-14T13:41:31.281Z,308.00
2018-12-14T13:42:31.292Z,312.00
2018-12-14T13:43:31.270Z,312.00
2018-12-14T13:44:31.355Z,304.00
2018-12-14T13:46:31.357Z,300.00
2018-12-14T13:47:31.447Z,296.00
2018-12-14T13:48:31.483Z,296.00
2018-12-14T13:50:31.532Z,292.00
2018-12-14T13:51:31.517Z,288.00
2018-12-14T13:53:31.591Z,268.00
2018-12-14T13:55:31.945Z,268.00
2018-12-14T13:56:31.718Z,260.00
2018-12-14T13:57:31.748Z,248.00
2018-12-14T13:58:31.731Z,240.00
2018-12-14T13:59:31.965Z,236.00
2018-12-14T14:00:31.838Z,236.00
2018-12-14T14:01:31.919Z,228.00
2018-12-14T14:02:32.159Z,220.00
2018-12-14T14:03:31.937Z,220.00
2018-12-14T14:04:31.977Z,224.00
2018-12-14T14:05:31.994Z,228.00
2018-12-14T14:07:32.015Z,220.00
2018-12-14T14:08:32.087Z,220.00
2018-12-14T14:09:32.416Z,220.00
2018-12-14T14:10:32.100Z,216.00
2018-12-14T14:11:32.180Z,220.00
2018-12-14T14:12:32.168Z,224.00
2018-12-14T14:13:32.252Z,224.00
2018-12-14T14:14:32.216Z,220.00
2018-12-14T14:16:32.633Z,204.00
2018-12-14T14:17:32.360Z,196.00
2018-12-14T14:18:32.393Z,188.00
2018-12-14T14:19:32.383Z,184.00
2018-12-14T14:20:32.408Z,184.00
2018-12-14T14:21:32.494Z,180.00
2018-12-14T14:22:32.517Z,180.00
2018-12-14T14:23:32.546Z,172.00
2018-12-14T14:24:32.584Z,168.00
2018-12-14T14:25:32.609Z,164.00
2018-12-14T14:26:32.644Z,160.00
2018-12-14T14:27:32.622Z,160.00
2018-12-14T14:28:32.705Z,160.00
2018-12-14T14:29:32.675Z,160.00
2018-12-14T14:30:32.710Z,156.00
2018-12-14T14:31:32.843Z,156.00
2018-12-14T14:32:32.819Z,156.00
2018-12-14T14:33:32.901Z,156.00
2018-12-14T14:34:33.441Z,152.00
2018-12-14T14:35:33.036Z,152.00
2018-12-14T14:36:33.004Z,148.00
2018-12-14T14:37:32.979Z,148.00
2018-12-14T14:38:33.026Z,144.00
2018-12-14T14:39:33.042Z,136.00
2018-12-14T14:40:33.099Z,132.00
2018-12-14T14:41:33.099Z,124.00
2018-12-14T14:42:33.134Z,124.00
2018-12-14T14:43:33.111Z,116.00
2018-12-14T14:44:33.136Z,116.00
2018-12-14T14:45:33.173Z,116.00
2018-12-14T14:46:33.200Z,116.00
2018-12-14T14:47:33.636Z,112.00
2018-12-14T14:48:33.315Z,108.00
2018-12-14T14:49:33.343Z,100.00
2018-12-14T14:50:33.371Z,96.00
2018-12-14T14:51:34.833Z,92.00
2018-12-14T14:52:33.479Z,88.00
2018-12-14T14:54:39.721Z,80.00